Time;durP1;ratioP1;P1;durP2;ratioP2;P2;SDS_P1;SDS_P2;PMS_P1;PMS_P2;Temp;Humidity;BMP_temperature;BMP_pressure;BME280_temperature;BME280_humidity;BME280_pressure;Samples;Min_cycle;Max_cycle;Signal;HPM_P1;HPM_P2
2023/04/07 00:00:51;;;;;;;12.18;6.75;;;5.10;70.90;;;;;;4943959;28;20198;-64
2023/04/07 00:03:17;;;;;;;13.63;6.05;;;5.00;70.80;;;;;;4942791;28;20027;-64
2023/04/07 00:05:42;;;;;;;8.88;5.90;;;5.00;71.20;;;;;;4941247;28;20035;-64
2023/04/07 00:08:08;;;;;;;10.40;5.95;;;5.00;70.90;;;;;;4943896;28;20039;-64
2023/04/07 00:10:35;;;;;;;10.88;6.38;;;5.00;71.40;;;;;;4944045;28;20055;-64
2023/04/07 00:13:01;;;;;;;11.55;6.00;;;5.00;71.70;;;;;;4943891;28;20046;-64
2023/04/07 00:15:27;;;;;;;11.60;6.40;;;5.00;72.00;;;;;;4943973;28;20566;-64
2023/04/07 00:17:53;;;;;;;12.05;5.88;;;4.90;72.20;;;;;;4940400;28;20023;-64
2023/04/07 00:20:18;;;;;;;10.27;5.85;;;4.90;72.70;;;;;;4944513;28;20035;-64
2023/04/07 00:22:44;;;;;;;10.00;6.38;;;4.90;72.20;;;;;;4941767;28;20027;-64
2023/04/07 00:25:10;;;;;;;9.43;5.80;;;4.80;72.40;;;;;;4943966;28;20036;-64
2023/04/07 00:27:36;;;;;;;11.10;6.70;;;4.80;71.80;;;;;;4942671;28;20069;-64
2023/04/07 00:30:03;;;;;;;13.70;6.53;;;4.80;72.30;;;;;;4929853;29;20393;-64
2023/04/07 00:32:28;;;;;;;11.98;6.95;;;4.80;72.40;;;;;;4940994;28;20472;-64
2023/04/07 00:34:54;;;;;;;10.68;6.35;;;4.70;72.60;;;;;;4927831;29;20122;-64
2023/04/07 00:37:20;;;;;;;12.77;6.40;;;4.70;73.00;;;;;;4945400;28;20031;-64
2023/04/07 00:39:46;;;;;;;12.82;6.40;;;4.70;72.60;;;;;;4946672;28;20038;-64
2023/04/07 00:42:12;;;;;;;14.20;6.00;;;4.60;72.10;;;;;;4928013;28;20601;-63
2023/04/07 00:44:38;;;;;;;14.05;6.35;;;4.60;72.30;;;;;;4927647;28;20035;-64
2023/04/07 00:47:04;;;;;;;11.68;6.03;;;4.60;72.90;;;;;;4929050;29;20031;-64
2023/04/07 00:49:30;;;;;;;11.13;6.70;;;4.60;72.90;;;;;;4944780;28;20642;-64
2023/04/07 00:51:57;;;;;;;10.70;6.20;;;4.60;73.50;;;;;;4923932;28;20262;-64
2023/04/07 00:54:23;;;;;;;9.07;5.05;;;4.60;72.80;;;;;;4927305;29;20034;-63
2023/04/07 00:56:51;;;;;;;10.65;6.15;;;4.60;72.80;;;;;;4945039;28;20026;-64
2023/04/07 00:59:17;;;;;;;8.98;6.45;;;4.50;72.90;;;;;;4928370;29;20130;-64
2023/04/07 01:01:45;;;;;;;11.05;6.55;;;4.50;73.70;;;;;;4942538;28;20112;-64
2023/04/07 01:04:40;;;;;;;11.48;6.45;;;4.50;74.40;;;;;;4939036;28;20053;-64
2023/04/07 01:07:15;;;;;;;9.98;5.95;;;4.50;75.00;;;;;;4903408;28;20043;-64
2023/04/07 01:09:59;;;;;;;11.60;5.90;;;4.40;74.50;;;;;;4930466;28;20765;-64
2023/04/07 01:12:38;;;;;;;9.90;5.80;;;4.50;74.70;;;;;;4928116;28;20035;-64
2023/04/07 01:15:09;;;;;;;8.68;5.55;;;4.50;74.40;;;;;;4937963;28;20510;-64
2023/04/07 01:17:44;;;;;;;12.55;6.50;;;4.40;74.40;;;;;;4926826;28;20113;-64
2023/04/07 01:20:15;;;;;;;13.77;5.85;;;4.50;74.60;;;;;;4927216;29;20023;-64
2023/04/07 01:22:44;;;;;;;12.18;5.72;;;4.50;74.70;;;;;;4929848;28;20852;-63
2023/04/07 01:25:35;;;;;;;8.13;5.18;;;4.40;75.10;;;;;;4939766;28;20428;-63
2023/04/07 01:28:01;;;;;;;9.55;5.80;;;4.40;75.80;;;;;;4926154;29;20213;-64
2023/04/07 01:30:36;;;;;;;8.93;5.47;;;4.40;76.30;;;;;;4940460;28;20483;-64
2023/04/07 01:33:05;;;;;;;9.50;6.10;;;4.40;76.90;;;;;;4937368;28;20045;-64
2023/04/07 01:35:33;;;;;;;11.05;5.63;;;4.30;77.00;;;;;;4943766;28;20120;-64
2023/04/07 01:38:00;;;;;;;9.18;6.03;;;4.30;77.00;;;;;;4941927;28;20055;-64
2023/04/07 01:40:27;;;;;;;7.28;5.55;;;4.30;77.20;;;;;;4942742;28;20515;-64
2023/04/07 01:42:54;;;;;;;10.20;5.75;;;4.30;77.40;;;;;;4941295;28;20059;-63
2023/04/07 01:45:21;;;;;;;10.85;5.40;;;4.20;78.00;;;;;;4939838;28;20027;-64
2023/04/07 01:47:47;;;;;;;9.65;5.45;;;4.20;77.40;;;;;;4940604;28;20644;-64
2023/04/07 01:50:14;;;;;;;9.57;5.03;;;4.10;77.70;;;;;;4928387;29;20050;-64
2023/04/07 01:52:41;;;;;;;10.60;5.45;;;4.10;78.20;;;;;;4925874;28;20035;-64
2023/04/07 01:55:09;;;;;;;10.07;5.45;;;4.10;78.90;;;;;;4941663;28;20495;-64
2023/04/07 01:57:40;;;;;;;8.82;5.43;;;4.00;79.70;;;;;;4927513;28;20042;-64
2023/04/07 02:00:13;;;;;;;8.27;4.78;;;4.00;79.60;;;;;;4926053;29;20031;-63
2023/04/07 02:02:47;;;;;;;9.55;4.95;;;4.00;79.50;;;;;;4926080;29;20039;-64
2023/04/07 02:05:16;;;;;;;8.70;5.20;;;3.90;79.40;;;;;;4924886;29;20410;-64
2023/04/07 02:07:54;;;;;;;9.43;5.50;;;3.90;79.80;;;;;;4924552;28;20046;-64
2023/04/07 02:10:23;;;;;;;9.63;5.25;;;3.80;79.20;;;;;;4925648;29;20039;-63
2023/04/07 02:12:52;;;;;;;11.65;5.70;;;3.80;79.60;;;;;;4923974;28;20032;-63
2023/04/07 02:15:20;;;;;;;10.70;5.20;;;3.80;80.10;;;;;;4925589;29;20045;-64
2023/04/07 02:17:50;;;;;;;7.97;5.18;;;3.70;80.50;;;;;;4923731;28;20090;-64
2023/04/07 02:20:17;;;;;;;11.68;5.40;;;3.70;80.80;;;;;;4938847;28;20043;-64
2023/04/07 02:22:46;;;;;;;8.77;5.25;;;3.70;80.50;;;;;;4939389;28;20063;-64
2023/04/07 02:25:28;;;;;;;10.25;5.80;;;3.70;80.20;;;;;;4923780;29;20031;-63
2023/04/07 02:27:56;;;;;;;11.18;6.00;;;3.70;80.60;;;;;;4939692;28;20130;-64
2023/04/07 02:30:22;;;;;;;8.40;5.93;;;3.60;81.10;;;;;;4940281;28;20039;-64
2023/04/07 02:32:50;;;;;;;10.50;5.60;;;3.60;82.30;;;;;;4936782;28;20031;-63
2023/04/07 02:35:16;;;;;;;11.18;5.45;;;3.60;83.30;;;;;;4925745;29;20415;-64
2023/04/07 02:37:43;;;;;;;16.42;5.63;;;3.60;84.00;;;;;;4925672;28;20035;-64
2023/04/07 02:40:09;;;;;;;9.15;5.68;;;3.50;84.20;;;;;;4941569;28;20046;-64
2023/04/07 02:42:35;;;;;;;7.85;5.15;;;3.60;84.90;;;;;;4939415;28;20718;-63
2023/04/07 02:45:02;;;;;;;9.02;5.72;;;3.50;85.10;;;;;;4937464;28;20024;-65
2023/04/07 02:47:29;;;;;;;8.75;5.55;;;3.50;85.50;;;;;;4925808;28;20297;-63
2023/04/07 02:49:55;;;;;;;8.80;4.82;;;3.50;85.60;;;;;;4923981;29;20039;-65
2023/04/07 02:52:21;;;;;;;9.10;5.25;;;3.50;85.50;;;;;;4925711;29;20094;-63
2023/04/07 02:54:47;;;;;;;10.13;5.82;;;3.50;85.40;;;;;;4936907;28;20043;-64
2023/04/07 02:57:13;;;;;;;8.00;5.65;;;3.50;85.70;;;;;;4937676;28;20054;-64
2023/04/07 02:59:40;;;;;;;11.77;5.25;;;3.50;86.40;;;;;;4926253;28;20035;-63
2023/04/07 03:02:07;;;;;;;7.70;4.97;;;3.50;86.90;;;;;;4925630;29;20035;-64
2023/04/07 03:04:33;;;;;;;10.93;5.88;;;3.50;86.60;;;;;;4924441;28;20526;-63
2023/04/07 03:06:59;;;;;;;10.07;5.35;;;3.50;86.10;;;;;;4926662;29;20029;-64
2023/04/07 03:09:28;;;;;;;8.98;5.80;;;3.50;85.90;;;;;;4935662;28;20043;-63
2023/04/07 03:11:55;;;;;;;13.50;5.18;;;3.50;85.80;;;;;;4938478;28;20027;-64
2023/04/07 03:14:21;;;;;;;10.55;5.55;;;3.50;85.90;;;;;;4938748;28;20027;-64
2023/04/07 03:16:49;;;;;;;8.70;5.22;;;3.40;85.80;;;;;;4925669;28;20126;-64
2023/04/07 03:19:15;;;;;;;10.57;5.60;;;3.40;86.30;;;;;;4925756;29;20041;-64
2023/04/07 03:21:47;;;;;;;10.35;5.25;;;3.40;86.30;;;;;;4923503;28;20055;-64
2023/04/07 03:24:13;;;;;;;9.55;5.63;;;3.40;86.60;;;;;;4937909;28;20514;-64
2023/04/07 03:26:39;;;;;;;10.13;5.57;;;3.40;87.90;;;;;;4924509;28;20118;-63
2023/04/07 03:29:13;;;;;;;11.77;5.30;;;3.40;87.70;;;;;;4925587;29;20459;-63
2023/04/07 03:31:40;;;;;;;10.68;6.43;;;3.40;88.40;;;;;;4923706;28;20039;-64
2023/04/07 03:34:07;;;;;;;10.10;5.57;;;3.40;89.20;;;;;;4923316;29;20039;-63
2023/04/07 03:36:32;;;;;;;9.65;5.13;;;3.40;89.90;;;;;;4923661;28;20043;-63
2023/04/07 03:39:02;;;;;;;10.63;5.60;;;3.40;90.10;;;;;;4942506;28;20047;-64
2023/04/07 03:41:28;;;;;;;10.52;5.70;;;3.40;90.10;;;;;;4922451;28;20035;-63
2023/04/07 03:43:54;;;;;;;9.27;5.43;;;3.40;90.30;;;;;;4942073;28;20042;-64
2023/04/07 03:46:20;;;;;;;8.35;4.75;;;3.40;90.50;;;;;;4929156;29;20035;-64
2023/04/07 03:48:46;;;;;;;10.68;5.80;;;3.40;90.90;;;;;;4929473;28;20130;-64
2023/04/07 03:51:12;;;;;;;11.07;5.25;;;3.40;91.40;;;;;;4926878;29;20039;-63
2023/04/07 03:53:39;;;;;;;9.05;5.30;;;3.40;91.70;;;;;;4926017;28;20051;-64
2023/04/07 03:56:16;;;;;;;7.93;5.20;;;3.40;92.00;;;;;;4923546;29;20070;-63
2023/04/07 03:58:48;;;;;;;7.95;4.95;;;3.30;92.40;;;;;;4930526;28;20039;-63
2023/04/07 04:01:21;;;;;;;8.45;5.50;;;3.30;92.70;;;;;;4927711;29;20508;-65
2023/04/07 04:03:50;;;;;;;8.52;4.93;;;3.30;93.50;;;;;;4927331;28;20031;-64
2023/04/07 04:06:23;;;;;;;10.68;6.38;;;3.30;93.30;;;;;;4940774;28;20035;-65
2023/04/07 04:08:50;;;;;;;8.45;5.97;;;3.40;93.10;;;;;;4928313;28;20039;-63
2023/04/07 04:11:17;;;;;;;10.88;5.65;;;3.40;92.90;;;;;;4927112;29;20058;-63
2023/04/07 04:13:52;;;;;;;8.30;4.95;;;3.40;92.90;;;;;;4927493;29;20153;-63
2023/04/07 04:16:18;;;;;;;9.60;5.65;;;3.40;92.80;;;;;;4926245;28;20031;-63
2023/04/07 04:18:46;;;;;;;9.02;5.22;;;3.40;92.80;;;;;;4926474;28;20043;-63
2023/04/07 04:21:13;;;;;;;8.88;5.32;;;3.50;92.60;;;;;;4929349;29;20043;-63
2023/04/07 04:23:41;;;;;;;7.35;5.03;;;3.50;92.60;;;;;;4928961;28;20118;-63
2023/04/07 04:26:07;;;;;;;8.05;4.78;;;3.60;92.80;;;;;;4941828;28;20042;-64
2023/04/07 04:28:33;;;;;;;9.25;5.13;;;3.60;92.90;;;;;;4927603;28;20035;-64
2023/04/07 04:31:01;;;;;;;9.00;5.85;;;3.60;93.10;;;;;;4943182;28;20042;-63
2023/04/07 04:33:30;;;;;;;10.68;5.85;;;3.60;92.90;;;;;;4941616;28;20038;-64
2023/04/07 04:35:58;;;;;;;11.65;5.85;;;3.70;92.60;;;;;;4938513;28;20023;-63
2023/04/07 04:38:25;;;;;;;11.20;6.30;;;3.70;92.20;;;;;;4924000;29;20070;-63
2023/04/07 04:40:56;;;;;;;10.77;5.40;;;3.70;91.90;;;;;;4930376;29;20794;-64
2023/04/07 04:43:29;;;;;;;11.57;5.80;;;3.70;92.10;;;;;;4932126;28;20027;-64
2023/04/07 04:45:55;;;;;;;9.32;5.50;;;3.70;92.00;;;;;;4924948;29;20020;-64
2023/04/07 04:48:24;;;;;;;14.02;6.10;;;3.70;92.10;;;;;;4924943;29;20766;-63
2023/04/07 04:50:50;;;;;;;10.45;5.75;;;3.70;92.40;;;;;;4944699;28;20085;-64
2023/04/07 04:53:16;;;;;;;9.20;5.63;;;3.70;92.30;;;;;;4930772;29;20043;-63
2023/04/07 04:55:50;;;;;;;8.25;5.10;;;3.70;92.20;;;;;;4926374;29;21744;-64
2023/04/07 04:58:20;;;;;;;8.60;5.63;;;3.70;92.30;;;;;;4926923;28;20554;-64
2023/04/07 05:00:56;;;;;;;10.70;5.65;;;3.80;92.80;;;;;;4926830;28;20039;-64
2023/04/07 05:03:27;;;;;;;12.05;6.38;;;3.80;92.90;;;;;;4926484;29;20503;-63
2023/04/07 05:05:53;;;;;;;10.35;6.00;;;3.90;92.60;;;;;;4926565;28;20027;-64
2023/04/07 05:08:21;;;;;;;9.98;5.43;;;3.90;92.00;;;;;;4942787;28;20032;-64
2023/04/07 05:10:47;;;;;;;8.45;5.38;;;3.90;92.10;;;;;;4941181;28;20046;-63
2023/04/07 05:13:16;;;;;;;7.82;5.30;;;4.00;92.00;;;;;;4927019;29;20058;-63
2023/04/07 05:15:42;;;;;;;10.25;5.65;;;4.00;91.80;;;;;;4943336;28;20063;-64
2023/04/07 05:18:10;;;;;;;9.65;6.03;;;4.10;92.20;;;;;;4941715;28;20031;-64
2023/04/07 05:20:36;;;;;;;10.27;5.18;;;4.20;92.20;;;;;;4926256;28;20059;-64
2023/04/07 05:23:02;;;;;;;10.55;5.60;;;4.20;92.50;;;;;;4943771;28;20559;-64
2023/04/07 05:25:32;;;;;;;12.00;6.22;;;4.30;92.20;;;;;;4943410;28;20039;-64
2023/04/07 05:28:01;;;;;;;12.18;6.90;;;4.30;91.70;;;;;;4925913;29;20552;-64
2023/04/07 05:30:27;;;;;;;11.50;6.35;;;4.40;91.10;;;;;;4940995;28;20041;-63
2023/04/07 05:32:54;;;;;;;7.82;5.10;;;4.50;90.90;;;;;;4925451;29;20042;-64
2023/04/07 05:35:40;;;;;;;10.43;6.30;;;4.60;91.10;;;;;;4942623;28;20130;-64
2023/04/07 05:38:06;;;;;;;10.77;6.32;;;4.70;90.60;;;;;;4942383;28;20050;-63
2023/04/07 05:40:32;;;;;;;10.77;6.28;;;4.80;90.60;;;;;;4926083;28;20039;-64
2023/04/07 05:43:01;;;;;;;11.25;7.10;;;4.90;90.50;;;;;;4925064;29;20678;-63
2023/04/07 05:45:30;;;;;;;12.80;6.68;;;5.10;90.10;;;;;;4924735;28;20040;-63
2023/04/07 05:47:55;;;;;;;12.43;7.20;;;5.20;90.30;;;;;;4942171;28;20035;-63
2023/04/07 05:50:28;;;;;;;12.13;7.53;;;5.30;90.10;;;;;;4925236;28;20039;-63
2023/04/07 05:52:55;;;;;;;12.68;6.75;;;5.40;89.80;;;;;;4943106;28;21348;-63
2023/04/07 05:55:24;;;;;;;15.48;6.78;;;5.60;89.80;;;;;;4942605;28;20034;-66
2023/04/07 05:57:51;;;;;;;11.38;6.13;;;5.80;89.40;;;;;;4923970;28;20027;-63
2023/04/07 06:00:20;;;;;;;12.13;7.15;;;6.00;88.70;;;;;;4924910;29;20035;-63
2023/04/07 06:02:56;;;;;;;14.43;7.18;;;6.20;88.10;;;;;;4927473;29;20038;-63
2023/04/07 06:05:23;;;;;;;10.93;5.97;;;6.60;86.10;;;;;;4925639;29;20523;-63
2023/04/07 06:07:53;;;;;;;11.65;6.35;;;7.00;84.00;;;;;;4926510;28;20035;-66
2023/04/07 06:10:19;;;;;;;10.55;6.40;;;7.30;82.10;;;;;;4926398;29;20100;-63
2023/04/07 06:12:45;;;;;;;12.07;6.15;;;7.80;78.30;;;;;;4926146;28;20130;-63
2023/04/07 06:15:11;;;;;;;12.15;6.10;;;8.10;76.80;;;;;;4940814;28;20182;-63
2023/04/07 06:17:37;;;;;;;10.88;6.28;;;8.50;76.30;;;;;;4943836;28;20035;-63
2023/04/07 06:20:03;;;;;;;8.75;6.00;;;9.10;75.00;;;;;;4926295;29;20039;-64
2023/04/07 06:22:31;;;;;;;12.00;5.95;;;9.60;72.60;;;;;;4940574;28;20577;-63
2023/04/07 06:24:59;;;;;;;10.65;5.80;;;10.10;68.10;;;;;;4922120;29;20035;-63
2023/04/07 06:27:25;;;;;;;9.00;5.65;;;10.20;65.80;;;;;;4944182;28;20043;-63
2023/04/07 06:29:51;;;;;;;8.93;6.15;;;9.90;64.70;;;;;;4926473;28;21328;-63
2023/04/07 06:32:17;;;;;;;9.73;5.78;;;9.70;64.30;;;;;;4944197;28;20039;-64
2023/04/07 06:34:43;;;;;;;10.23;5.70;;;9.50;65.40;;;;;;4942939;28;20031;-64
2023/04/07 06:37:09;;;;;;;10.95;5.63;;;9.30;65.40;;;;;;4942666;28;20407;-63
2023/04/07 06:39:35;;;;;;;11.38;6.10;;;9.30;66.20;;;;;;4944146;28;20518;-64
2023/04/07 06:42:01;;;;;;;11.43;6.20;;;9.40;66.40;;;;;;4944536;28;20023;-64
2023/04/07 06:44:27;;;;;;;8.10;5.28;;;9.50;66.50;;;;;;4940943;28;20724;-64
2023/04/07 06:46:54;;;;;;;8.60;5.47;;;9.70;64.40;;;;;;4942612;28;20396;-64
2023/04/07 06:49:20;;;;;;;10.48;6.20;;;9.80;66.20;;;;;;4944786;28;20036;-64
2023/04/07 06:51:46;;;;;;;9.00;5.68;;;10.10;65.40;;;;;;4939977;28;20527;-64
2023/04/07 06:54:12;;;;;;;8.88;5.13;;;10.50;64.70;;;;;;4943661;28;20038;-64
2023/04/07 06:56:40;;;;;;;8.35;5.63;;;10.90;63.60;;;;;;4940887;28;20035;-64
2023/04/07 06:59:05;;;;;;;10.73;5.65;;;11.20;62.90;;;;;;4938114;28;20274;-64
2023/04/07 07:01:32;;;;;;;9.32;5.35;;;11.40;60.70;;;;;;4937773;28;20390;-63
2023/04/07 07:03:59;;;;;;;10.30;6.00;;;11.40;60.30;;;;;;4941013;28;20031;-64
2023/04/07 07:06:26;;;;;;;9.43;5.93;;;11.50;60.80;;;;;;4939009;28;20019;-64
2023/04/07 07:08:52;;;;;;;12.65;6.15;;;11.50;61.10;;;;;;4942811;28;20533;-64
2023/04/07 07:11:18;;;;;;;8.50;5.30;;;11.50;59.50;;;;;;4942717;28;20035;-64
2023/04/07 07:13:44;;;;;;;9.95;5.28;;;11.30;60.20;;;;;;4924852;28;20804;-64
2023/04/07 07:16:11;;;;;;;7.95;4.80;;;11.30;60.80;;;;;;4939938;28;20090;-64
2023/04/07 07:18:37;;;;;;;10.65;5.45;;;11.30;59.50;;;;;;4940328;28;20039;-64
2023/04/07 07:21:04;;;;;;;9.02;5.57;;;11.20;60.20;;;;;;4941899;28;20045;-64
2023/04/07 07:23:30;;;;;;;8.05;5.63;;;11.20;61.50;;;;;;4944797;28;20094;-64
2023/04/07 07:25:56;;;;;;;12.05;6.18;;;11.20;61.20;;;;;;4943765;28;20037;-64
2023/04/07 07:28:22;;;;;;;9.60;5.88;;;11.40;60.30;;;;;;4946158;28;20791;-64
2023/04/07 07:30:48;;;;;;;9.57;5.90;;;11.60;59.10;;;;;;4942580;28;20046;-64
2023/04/07 07:33:14;;;;;;;11.65;6.05;;;11.70;59.70;;;;;;4943325;28;20035;-64
2023/04/07 07:35:40;;;;;;;14.13;6.10;;;11.80;60.00;;;;;;4944141;28;20522;-64
2023/04/07 07:38:06;;;;;;;9.05;5.78;;;11.80;60.10;;;;;;4943488;28;20041;-64
2023/04/07 07:40:32;;;;;;;10.38;6.13;;;11.90;60.00;;;;;;4945639;28;20552;-64
2023/04/07 07:42:58;;;;;;;13.93;5.65;;;12.20;58.30;;;;;;4944229;28;20034;-64
2023/04/07 07:45:24;;;;;;;11.95;5.70;;;12.50;57.20;;;;;;4942788;28;20039;-64
2023/04/07 07:47:50;;;;;;;8.65;5.22;;;12.90;56.80;;;;;;4941191;28;20137;-66
2023/04/07 07:50:16;;;;;;;9.10;6.03;;;13.30;55.60;;;;;;4942829;28;20087;-64
2023/04/07 07:52:42;;;;;;;12.38;5.85;;;13.60;55.10;;;;;;4939591;28;20073;-65
2023/04/07 07:55:08;;;;;;;12.57;5.93;;;13.90;53.50;;;;;;4939551;28;20046;-64
2023/04/07 07:57:35;;;;;;;12.35;6.10;;;14.10;50.70;;;;;;4944489;28;20054;-64
2023/04/07 08:00:02;;;;;;;10.13;5.85;;;14.00;51.20;;;;;;4944333;28;20392;-64
2023/04/07 08:02:39;;;;;;;11.27;6.10;;;14.00;52.40;;;;;;4945123;28;20734;-64
2023/04/07 08:05:05;;;;;;;11.00;6.25;;;13.90;51.10;;;;;;4944944;28;20035;-64
2023/04/07 08:07:31;;;;;;;13.35;5.70;;;13.80;51.30;;;;;;4941580;28;20175;-64
2023/04/07 08:09:57;;;;;;;10.10;5.80;;;13.60;52.60;;;;;;4942154;28;20558;-64
2023/04/07 08:12:23;;;;;;;10.00;5.72;;;13.50;51.90;;;;;;4943406;28;20035;-64
2023/04/07 08:14:49;;;;;;;10.48;5.43;;;13.50;51.60;;;;;;4926192;28;20122;-65
2023/04/07 08:17:15;;;;;;;9.57;5.15;;;13.30;51.60;;;;;;4942959;28;20471;-64
2023/04/07 08:19:41;;;;;;;9.77;5.30;;;13.10;52.30;;;;;;4926148;28;20031;-64
2023/04/07 08:22:07;;;;;;;8.02;5.18;;;13.00;53.80;;;;;;4945083;28;20046;-65
2023/04/07 08:24:32;;;;;;;8.82;4.88;;;13.00;53.90;;;;;;4941287;28;20042;-64
2023/04/07 08:26:58;;;;;;;7.30;4.43;;;13.00;50.10;;;;;;4944729;28;20031;-64
2023/04/07 08:29:24;;;;;;;11.57;4.97;;;12.80;51.00;;;;;;4942601;28;20067;-65
2023/04/07 08:31:50;;;;;;;10.68;5.10;;;12.60;51.80;;;;;;4944564;28;20035;-64
2023/04/07 08:34:17;;;;;;;8.45;5.30;;;12.50;53.60;;;;;;4944946;28;20715;-64
2023/04/07 08:36:43;;;;;;;8.23;4.82;;;12.50;53.20;;;;;;4944496;28;20039;-64
2023/04/07 08:39:09;;;;;;;10.73;5.90;;;12.40;52.90;;;;;;4945767;28;20090;-64
2023/04/07 08:41:40;;;;;;;8.68;5.03;;;12.40;53.30;;;;;;4944298;28;20039;-64
2023/04/07 08:44:10;;;;;;;8.73;5.28;;;12.20;53.20;;;;;;4940760;28;20503;-66
2023/04/07 08:46:38;;;;;;;8.77;4.95;;;12.10;55.30;;;;;;4944469;28;20035;-66
2023/04/07 08:49:09;;;;;;;8.77;4.88;;;12.00;55.20;;;;;;4944636;28;20716;-66
2023/04/07 08:51:37;;;;;;;9.63;4.88;;;11.90;54.70;;;;;;4944479;28;20032;-66
2023/04/07 08:54:05;;;;;;;9.05;4.35;;;11.90;54.00;;;;;;4943410;28;20117;-66
2023/04/07 08:56:33;;;;;;;7.75;4.40;;;11.80;54.10;;;;;;4944288;28;20035;-64
2023/04/07 08:59:00;;;;;;;7.03;4.05;;;11.80;52.50;;;;;;4943247;28;20137;-66
2023/04/07 09:01:26;;;;;;;6.93;4.25;;;11.80;51.60;;;;;;4944323;28;20035;-66
2023/04/07 09:03:52;;;;;;;7.72;4.13;;;11.80;51.90;;;;;;4926412;28;20035;-66
2023/04/07 09:06:18;;;;;;;7.93;4.13;;;11.70;51.40;;;;;;4943994;28;20037;-66
2023/04/07 09:08:44;;;;;;;8.60;4.70;;;11.70;51.00;;;;;;4943317;28;20039;-64
2023/04/07 09:11:11;;;;;;;7.63;4.25;;;11.70;51.00;;;;;;4944236;28;20062;-64
2023/04/07 09:13:36;;;;;;;8.93;4.15;;;11.60;52.20;;;;;;4941829;28;20110;-66
2023/04/07 09:16:02;;;;;;;8.00;4.00;;;11.40;53.20;;;;;;4943981;28;20760;-66
2023/04/07 09:18:28;;;;;;;7.85;4.25;;;11.30;52.70;;;;;;4943055;28;20039;-66
2023/04/07 09:20:56;;;;;;;7.78;3.72;;;11.30;53.10;;;;;;4942609;28;20019;-66
2023/04/07 09:23:33;;;;;;;7.78;3.55;;;11.20;53.40;;;;;;4943457;28;20027;-66
2023/04/07 09:26:16;;;;;;;8.18;3.97;;;11.20;53.10;;;;;;4939535;28;20101;-66
2023/04/07 09:28:47;;;;;;;9.20;4.05;;;11.10;54.00;;;;;;4943181;28;20055;-66
2023/04/07 09:31:13;;;;;;;8.00;4.00;;;11.00;54.70;;;;;;4941242;28;20047;-66
2023/04/07 09:33:39;;;;;;;8.20;3.67;;;11.00;54.70;;;;;;4943585;28;20124;-66
2023/04/07 09:36:06;;;;;;;7.13;3.80;;;11.00;54.70;;;;;;4942129;28;20070;-66
2023/04/07 09:38:36;;;;;;;7.90;3.88;;;11.00;55.30;;;;;;4941858;28;20046;-66
2023/04/07 09:41:13;;;;;;;7.70;3.60;;;11.00;54.60;;;;;;4942311;28;20031;-66
2023/04/07 09:43:41;;;;;;;5.30;3.28;;;11.10;56.00;;;;;;4942695;28;20042;-66
2023/04/07 09:46:17;;;;;;;6.22;3.40;;;11.20;54.30;;;;;;4943604;28;20046;-66
2023/04/07 09:48:45;;;;;;;4.65;2.75;;;11.30;53.10;;;;;;4941664;28;20035;-66
2023/04/07 09:51:14;;;;;;;6.00;2.83;;;11.40;53.30;;;;;;4943615;28;20130;-66
2023/04/07 09:53:45;;;;;;;7.32;2.70;;;11.40;50.30;;;;;;4942546;28;20035;-64
2023/04/07 09:56:11;;;;;;;5.22;2.63;;;11.50;49.50;;;;;;4943299;28;20408;-66
2023/04/07 09:58:39;;;;;;;3.35;2.53;;;11.60;48.70;;;;;;4941796;28;20089;-66
2023/04/07 10:01:10;;;;;;;5.32;3.28;;;11.40;47.50;;;;;;4942786;28;20110;-66
2023/04/07 10:03:37;;;;;;;6.00;2.40;;;11.40;47.60;;;;;;4926018;28;20918;-66
2023/04/07 10:06:05;;;;;;;8.13;2.47;;;11.30;46.10;;;;;;4943176;28;20860;-66
2023/04/07 10:08:33;;;;;;;3.85;2.30;;;11.30;46.10;;;;;;4940985;28;20662;-66
2023/04/07 10:11:02;;;;;;;6.47;2.35;;;11.30;45.90;;;;;;4940667;28;20143;-66
2023/04/07 10:13:32;;;;;;;4.72;2.45;;;11.20;45.70;;;;;;4942427;28;20746;-66
2023/04/07 10:16:01;;;;;;;5.68;2.28;;;11.20;45.50;;;;;;4943150;28;20031;-66
2023/04/07 10:18:33;;;;;;;6.03;2.60;;;11.10;45.10;;;;;;4938998;28;20584;-66
2023/04/07 10:21:06;;;;;;;6.00;2.58;;;11.00;45.60;;;;;;4941459;28;20023;-66
2023/04/07 10:23:57;;;;;;;5.15;2.80;;;11.00;46.10;;;;;;4940636;28;20598;-66
2023/04/07 10:26:28;;;;;;;5.22;2.88;;;11.00;46.80;;;;;;4938821;28;20128;-66
2023/04/07 10:28:59;;;;;;;6.55;2.60;;;11.00;48.80;;;;;;4942085;28;20039;-66
2023/04/07 10:31:26;;;;;;;5.53;2.90;;;11.00;49.00;;;;;;4940537;28;20043;-66
2023/04/07 10:33:53;;;;;;;6.75;2.95;;;11.00;49.00;;;;;;4942779;28;20043;-66
2023/04/07 10:36:20;;;;;;;4.97;2.50;;;11.10;48.00;;;;;;4941557;28;20126;-66
2023/04/07 10:39:05;;;;;;;5.65;2.63;;;11.10;47.60;;;;;;4944407;28;20035;-66
2023/04/07 10:41:38;;;;;;;4.15;2.40;;;11.20;48.50;;;;;;4943030;28;20042;-66
2023/04/07 10:44:39;;;;;;;4.93;2.42;;;11.20;47.70;;;;;;4941186;28;20039;-66
2023/04/07 10:47:05;;;;;;;4.13;2.38;;;11.30;48.60;;;;;;4941162;28;20051;-66
2023/04/07 10:49:33;;;;;;;4.82;2.85;;;11.40;47.80;;;;;;4942759;28;20035;-66
2023/04/07 10:52:11;;;;;;;4.05;2.53;;;11.30;47.90;;;;;;4942084;28;20038;-66
2023/04/07 10:54:40;;;;;;;6.97;2.50;;;11.20;47.50;;;;;;4944076;28;20042;-64
2023/04/07 10:57:13;;;;;;;5.57;2.38;;;11.20;47.10;;;;;;4931092;29;20035;-66
2023/04/07 10:59:45;;;;;;;3.70;2.00;;;11.30;48.90;;;;;;4944149;28;20046;-66
2023/04/07 11:02:11;;;;;;;5.72;2.25;;;11.40;48.30;;;;;;4945756;28;20046;-66
2023/04/07 11:04:38;;;;;;;6.10;2.50;;;11.50;48.70;;;;;;4946138;28;20448;-66
2023/04/07 11:07:04;;;;;;;4.68;2.28;;;11.60;48.00;;;;;;4944232;28;20041;-66
2023/04/07 11:09:30;;;;;;;2.65;1.70;;;11.70;47.30;;;;;;4946620;28;20466;-66
2023/04/07 11:11:56;;;;;;;3.72;1.88;;;11.70;46.90;;;;;;4943254;28;20031;-66
2023/04/07 11:14:29;;;;;;;3.90;1.88;;;11.70;46.00;;;;;;4943785;28;20099;-66
2023/04/07 11:16:55;;;;;;;3.10;1.77;;;11.70;46.60;;;;;;4945430;28;20036;-66
2023/04/07 11:19:22;;;;;;;3.65;1.67;;;11.70;45.50;;;;;;4943791;28;20799;-66
2023/04/07 11:21:48;;;;;;;2.63;1.73;;;11.80;44.90;;;;;;4945969;28;20035;-66
2023/04/07 11:24:32;;;;;;;2.90;1.58;;;11.80;43.80;;;;;;4946096;28;20110;-66
2023/04/07 11:26:58;;;;;;;3.03;1.58;;;11.80;44.20;;;;;;4945949;28;20031;-66
2023/04/07 11:29:31;;;;;;;2.38;1.38;;;11.80;44.00;;;;;;4946192;28;20032;-67
2023/04/07 11:32:01;;;;;;;2.65;1.60;;;11.80;44.50;;;;;;4940808;28;20062;-66
2023/04/07 11:34:31;;;;;;;2.88;1.70;;;12.00;45.20;;;;;;4945474;28;20881;-66
2023/04/07 11:37:00;;;;;;;3.00;1.80;;;12.00;44.50;;;;;;4943182;28;20050;-66
2023/04/07 11:39:29;;;;;;;2.20;1.30;;;12.10;45.80;;;;;;4940915;28;20054;-66
2023/04/07 11:41:55;;;;;;;2.10;1.33;;;12.20;44.40;;;;;;4945725;28;20174;-66
2023/04/07 11:44:21;;;;;;;2.10;1.23;;;12.20;43.40;;;;;;4942506;28;20136;-66
2023/04/07 11:47:04;;;;;;;3.53;1.63;;;12.20;44.40;;;;;;4942668;28;20616;-66
2023/04/07 11:49:31;;;;;;;2.40;1.42;;;12.20;44.70;;;;;;4945777;28;21013;-66
2023/04/07 11:52:02;;;;;;;2.08;1.50;;;12.10;44.10;;;;;;4945791;28;20153;-66
2023/04/07 11:54:42;;;;;;;1.95;1.40;;;12.00;45.10;;;;;;4944768;28;20054;-67
2023/04/07 11:57:11;;;;;;;2.08;1.70;;;12.00;46.30;;;;;;4940435;28;20537;-66
2023/04/07 11:59:38;;;;;;;5.15;1.65;;;12.10;47.20;;;;;;4945233;28;20097;-66
2023/04/07 12:02:05;;;;;;;1.98;1.30;;;12.20;46.80;;;;;;4938462;28;20750;-66
2023/04/07 12:04:31;;;;;;;2.42;1.50;;;12.40;47.80;;;;;;4942837;28;20031;-66
2023/04/07 12:07:08;;;;;;;2.67;1.35;;;12.60;49.00;;;;;;4945093;28;20039;-66
2023/04/07 12:09:37;;;;;;;4.20;1.60;;;12.60;47.50;;;;;;4945346;28;20035;-66
2023/04/07 12:12:05;;;;;;;2.45;1.73;;;12.60;46.00;;;;;;4945944;28;20118;-66
2023/04/07 12:14:31;;;;;;;2.25;1.50;;;12.50;47.00;;;;;;4944516;28;20042;-66
2023/04/07 12:16:57;;;;;;;2.13;1.55;;;12.30;48.70;;;;;;4945157;28;20031;-66
2023/04/07 12:19:27;;;;;;;2.42;1.40;;;12.40;50.60;;;;;;4945061;28;20844;-66
2023/04/07 12:21:53;;;;;;;3.13;1.60;;;12.30;50.70;;;;;;4945181;28;20031;-66
2023/04/07 12:24:18;;;;;;;1.83;1.40;;;12.30;50.90;;;;;;4945083;28;20045;-66
2023/04/07 12:26:44;;;;;;;3.50;1.60;;;12.20;51.70;;;;;;4945177;28;20483;-66
2023/04/07 12:29:10;;;;;;;3.17;1.55;;;12.10;54.20;;;;;;4945181;28;20032;-66
2023/04/07 12:31:36;;;;;;;2.85;1.55;;;12.00;56.40;;;;;;4944629;28;20066;-66
2023/04/07 12:34:02;;;;;;;3.70;1.88;;;11.80;58.00;;;;;;4927976;29;20826;-66
2023/04/07 12:36:28;;;;;;;3.15;2.25;;;11.80;59.10;;;;;;4944968;28;20039;-66
2023/04/07 12:38:55;;;;;;;4.03;1.67;;;11.70;60.70;;;;;;4946481;28;20035;-66
2023/04/07 12:41:21;;;;;;;4.20;2.38;;;11.70;62.40;;;;;;4946310;28;20038;-67
2023/04/07 12:43:47;;;;;;;3.05;2.03;;;11.70;63.90;;;;;;4940594;28;20039;-66
2023/04/07 12:46:13;;;;;;;3.33;2.08;;;11.70;64.00;;;;;;4944436;28;20031;-66
2023/04/07 12:48:39;;;;;;;3.83;2.47;;;11.60;66.60;;;;;;4944745;28;20142;-66
2023/04/07 12:51:05;;;;;;;9.30;2.25;;;11.50;67.60;;;;;;4928582;29;20110;-66
2023/04/07 12:53:31;;;;;;;4.82;1.92;;;11.40;68.60;;;;;;4944209;28;20070;-66